Time;durP1;ratioP1;P1;durP2;ratioP2;P2;SDS_P1;SDS_P2;PMS_P1;PMS_P2;Temp;Humidity;BMP_temperature;BMP_pressure;BME280_temperature;BME280_humidity;BME280_pressure;Samples;Min_cycle;Max_cycle;Signal;HPM_P1;HPM_P2
2022/10/06 00:01:31;;;;;;;;;;;;;;;12.82;98.65;100066.00;8258500;28;19925;-76
2022/10/06 00:05:32;;;;;;;;;;;;;;;12.75;98.67;100069.47;8253416;28;20452;-76
2022/10/06 00:09:33;;;;;;;;;;;;;;;12.75;98.84;100091.22;8255885;28;19933;-77
2022/10/06 00:13:35;;;;;;;;;;;;;;;12.71;99.34;100095.56;8261142;28;20366;-77
2022/10/06 00:17:37;;;;;;;;;;;;;;;12.75;99.99;100099.03;8251715;28;19929;-76
2022/10/06 00:21:39;;;;;;;;;;;;;;;12.81;100.00;100113.78;8272182;28;19925;-76
2022/10/06 00:25:41;;;;;;;;;;;;;;;12.88;100.00;100113.75;8251845;28;19925;-76
2022/10/06 00:29:42;;;;;;;;;;;;;;;12.96;100.00;100124.19;8244042;28;19933;-77
2022/10/06 00:33:44;;;;;;;;;;;;;;;13.04;100.00;100132.84;8234424;28;20590;-76
2022/10/06 00:37:46;;;;;;;;;;;;;;;13.17;100.00;100139.78;8236707;28;19930;-76
2022/10/06 00:41:47;;;;;;;;;;;;;;;13.46;100.00;100157.94;8248689;28;19925;-76
2022/10/06 00:45:48;;;;;;;;;;;;;;;13.77;100.00;100161.28;8256194;28;19925;-76
2022/10/06 00:49:52;;;;;;;;;;;;;;;13.99;100.00;100163.78;8249392;28;19925;-77
2022/10/06 00:53:53;;;;;;;;;;;;;;;14.19;100.00;100178.47;8260548;28;19975;-76
2022/10/06 00:57:55;;;;;;;;;;;;;;;14.33;100.00;100174.88;8259401;28;19937;-76
2022/10/06 01:02:00;;;;;;;;;;;;;;;14.43;99.69;100189.63;8251745;28;19926;-76
2022/10/06 01:06:02;;;;;;;;;;;;;;;14.52;97.74;100203.50;8254921;28;19972;-76
2022/10/06 01:10:04;;;;;;;;;;;;;;;14.57;96.08;100203.50;8256209;28;19925;-76
2022/10/06 01:14:06;;;;;;;;;;;;;;;14.61;94.52;100220.03;8252289;28;19926;-76
2022/10/06 01:18:12;;;;;;;;;;;;;;;14.60;90.94;100224.38;8255275;28;20305;-76
2022/10/06 01:22:15;;;;;;;;;;;;;;;14.59;87.88;100233.09;8261450;28;19925;-76
2022/10/06 01:26:17;;;;;;;;;;;;;;;14.56;86.67;100240.09;8271764;28;20499;-76
2022/10/06 01:30:22;;;;;;;;;;;;;;;14.51;86.01;100238.38;8267352;28;20289;-76
2022/10/06 01:34:23;;;;;;;;;;;;;;;14.46;85.23;100234.06;8256182;28;19929;-76
2022/10/06 01:38:25;;;;;;;;;;;;;;;14.43;84.58;100234.06;8256206;28;19925;-76
2022/10/06 01:42:30;;;;;;;;;;;;;;;14.38;84.92;100230.63;8256784;28;19936;-76
2022/10/06 01:46:32;;;;;;;;;;;;;;;14.34;84.19;100231.47;8258384;28;20579;-76
2022/10/06 01:50:33;;;;;;;;;;;;;;;14.29;84.11;100231.53;8258338;28;19988;-76
2022/10/06 01:54:34;;;;;;;;;;;;;;;14.28;82.99;100229.78;8258655;28;19925;-76
2022/10/06 01:58:36;;;;;;;;;;;;;;;14.26;83.25;100230.69;8260885;28;19926;-76
2022/10/06 02:02:37;;;;;;;;;;;;;;;14.23;83.95;100230.69;8255526;28;19933;-76
2022/10/06 02:06:38;;;;;;;;;;;;;;;14.18;84.42;100236.81;8269372;28;19922;-77
2022/10/06 02:10:40;;;;;;;;;;;;;;;14.15;85.38;100243.78;8263105;28;20279;-76
2022/10/06 02:14:41;;;;;;;;;;;;;;;14.11;85.92;100242.94;8258762;28;19926;-77
2022/10/06 02:18:43;;;;;;;;;;;;;;;14.10;86.01;100248.16;8258240;28;19976;-76
2022/10/06 02:22:44;;;;;;;;;;;;;;;14.01;86.55;100256.94;8261970;28;19972;-76
2022/10/06 02:26:45;;;;;;;;;;;;;;;13.97;87.57;100264.75;8269016;28;19984;-76
2022/10/06 02:30:47;;;;;;;;;;;;;;;13.93;87.73;100261.31;8245969;28;20401;-76
2022/10/06 02:34:48;;;;;;;;;;;;;;;13.92;87.97;100272.63;8269424;28;20337;-76
2022/10/06 02:38:50;;;;;;;;;;;;;;;13.90;89.03;100280.47;8252107;28;19957;-77
2022/10/06 02:42:51;;;;;;;;;;;;;;;13.88;89.53;100291.78;8264478;28;19925;-76
2022/10/06 02:46:53;;;;;;;;;;;;;;;13.80;90.44;100297.00;8256590;28;19926;-76
2022/10/06 02:50:54;;;;;;;;;;;;;;;13.78;91.12;100297.91;8264954;28;19937;-76
2022/10/06 02:54:56;;;;;;;;;;;;;;;13.75;91.56;100310.97;8259508;28;19956;-76
2022/10/06 02:58:57;;;;;;;;;;;;;;;13.72;91.52;100311.84;8263367;28;19930;-76
2022/10/06 03:02:59;;;;;;;;;;;;;;;13.71;91.68;100317.94;8256394;28;19925;-77
2022/10/06 03:07:00;;;;;;;;;;;;;;;13.68;92.32;100320.56;8262381;28;20028;-76
2022/10/06 03:11:02;;;;;;;;;;;;;;;13.67;91.65;100331.00;8261887;28;19930;-76
2022/10/06 03:15:04;;;;;;;;;;;;;;;13.66;91.65;100331.88;8249488;28;19925;-76
2022/10/06 03:19:06;;;;;;;;;;;;;;;13.64;91.90;100338.81;8258098;28;19965;-76
2022/10/06 03:23:08;;;;;;;;;;;;;;;13.62;91.87;100338.81;8253672;28;19925;-77
2022/10/06 03:27:14;;;;;;;;;;;;;;;13.58;91.99;100355.34;8262110;28;20426;-76
2022/10/06 03:31:16;;;;;;;;;;;;;;;13.53;92.25;100367.56;8263806;28;20007;-76
2022/10/06 03:35:18;;;;;;;;;;;;;;;13.53;92.68;100375.38;8258437;28;20313;-77
2022/10/06 03:39:19;;;;;;;;;;;;;;;13.51;92.49;100371.91;8265826;28;19987;-76
2022/10/06 03:43:21;;;;;;;;;;;;;;;13.52;92.54;100381.47;8270479;28;20035;-76
2022/10/06 03:47:22;;;;;;;;;;;;;;;13.48;92.89;100393.66;8245457;28;20068;-76
2022/10/06 03:51:28;;;;;;;;;;;;;;;13.48;93.04;100393.66;8264102;28;19930;-76
2022/10/06 03:55:29;;;;;;;;;;;;;;;13.47;93.30;100401.47;8260949;28;19980;-76
2022/10/06 03:59:33;;;;;;;;;;;;;;;13.47;92.94;100407.56;8258343;28;20515;-76
2022/10/06 04:03:34;;;;;;;;;;;;;;;13.46;93.13;100400.59;8261447;28;19925;-76
2022/10/06 04:07:35;;;;;;;;;;;;;;;13.44;92.77;100411.91;8260260;28;19929;-76
2022/10/06 04:11:37;;;;;;;;;;;;;;;13.40;92.82;100416.25;8250468;28;19941;-76
2022/10/06 04:15:39;;;;;;;;;;;;;;;13.43;93.39;100425.81;8246008;28;19926;-76
2022/10/06 04:19:40;;;;;;;;;;;;;;;13.41;93.36;100436.25;8243333;28;20417;-76
2022/10/06 04:23:42;;;;;;;;;;;;;;;13.40;93.38;100441.47;8260624;28;19988;-76
2022/10/06 04:27:44;;;;;;;;;;;;;;;13.39;93.69;100440.59;8256926;28;19962;-76
2022/10/06 04:31:45;;;;;;;;;;;;;;;13.37;93.83;100446.69;8259269;28;19925;-76
2022/10/06 04:35:47;;;;;;;;;;;;;;;13.35;93.34;100438.00;8254626;28;19983;-76
2022/10/06 04:39:48;;;;;;;;;;;;;;;13.32;93.81;100457.13;8263085;28;19925;-77
2022/10/06 04:43:49;;;;;;;;;;;;;;;13.32;93.89;100453.66;8281936;28;19940;-76
2022/10/06 04:47:51;;;;;;;;;;;;;;;13.33;94.42;100452.78;8260850;28;19925;-76
2022/10/06 04:51:52;;;;;;;;;;;;;;;13.29;94.89;100462.34;8263567;28;20227;-76
2022/10/06 04:56:10;;;;;;;;;;;;;;;13.26;94.90;100472.75;8264436;28;20378;-77
2022/10/06 05:00:24;;;;;;;;;;;;;;;13.26;95.41;100471.00;8261227;28;19933;-76
2022/10/06 05:04:25;;;;;;;;;;;;;;;13.27;95.84;100482.31;8268213;28;19988;-76
2022/10/06 05:08:26;;;;;;;;;;;;;;;13.28;95.52;100486.66;8288268;28;20346;-76
2022/10/06 05:12:29;;;;;;;;;;;;;;;13.28;95.63;100491.88;8291597;28;19925;-76
2022/10/06 05:16:31;;;;;;;;;;;;;;;13.24;95.71;100498.81;8262322;28;19926;-76
2022/10/06 05:20:33;;;;;;;;;;;;;;;13.19;95.59;100500.56;8261201;28;19980;-76
2022/10/06 05:24:34;;;;;;;;;;;;;;;13.14;95.00;100517.91;8248208;28;20338;-76
2022/10/06 05:28:36;;;;;;;;;;;;;;;13.00;94.85;100515.25;8264156;28;19983;-77
2022/10/06 05:32:37;;;;;;;;;;;;;;;12.90;95.44;100523.00;8253834;28;20453;-77
2022/10/06 05:36:38;;;;;;;;;;;;;;;12.82;95.41;100520.38;8291308;28;19936;-77
2022/10/06 05:40:40;;;;;;;;;;;;;;;12.73;95.28;100538.56;8296709;28;19936;-77
2022/10/06 05:44:41;;;;;;;;;;;;;;;12.65;95.23;100550.69;8271762;28;20060;-77
2022/10/06 05:48:49;;;;;;;;;;;;;;;12.53;95.66;100556.69;8285752;28;19921;-77
2022/10/06 05:52:53;;;;;;;;;;;;;;;12.43;94.99;100547.09;8268081;28;20387;-77
2022/10/06 05:56:54;;;;;;;;;;;;;;;12.31;95.37;100550.47;8290101;28;19925;-77
2022/10/06 06:01:04;;;;;;;;;;;;;;;12.25;95.90;100566.06;8261428;28;19948;-77
2022/10/06 06:05:06;;;;;;;;;;;;;;;12.15;96.50;100569.44;8244527;28;19987;-76
2022/10/06 06:09:08;;;;;;;;;;;;;;;12.06;96.79;100579.78;8241979;28;19925;-76
2022/10/06 06:13:10;;;;;;;;;;;;;;;12.01;96.68;100578.84;8268023;28;19925;-76
2022/10/06 06:17:12;;;;;;;;;;;;;;;12.01;97.03;100594.47;8237792;28;19933;-76
2022/10/06 06:21:13;;;;;;;;;;;;;;;11.98;96.77;100597.94;8241092;28;20325;-76
2022/10/06 06:25:14;;;;;;;;;;;;;;;11.93;96.83;100607.44;8238288;28;19929;-76
2022/10/06 06:29:15;;;;;;;;;;;;;;;11.94;97.98;100603.97;8257689;28;20468;-76
2022/10/06 06:33:17;;;;;;;;;;;;;;;11.96;98.38;100604.84;8257610;28;20674;-76
2022/10/06 06:37:18;;;;;;;;;;;;;;;12.09;97.91;100611.91;8272950;28;19925;-77
2022/10/06 06:41:24;;;;;;;;;;;;;;;12.25;98.80;100627.69;8254455;28;19925;-77
2022/10/06 06:45:25;;;;;;;;;;;;;;;12.37;98.01;100633.84;8240031;28;20366;-77
2022/10/06 06:49:27;;;;;;;;;;;;;;;12.50;97.79;100633.97;8251260;28;19929;-76
2022/10/06 06:53:29;;;;;;;;;;;;;;;12.67;97.72;100640.16;8244137;28;19925;-76
2022/10/06 06:57:30;;;;;;;;;;;;;;;12.99;97.04;100641.25;8271056;28;19931;-76
2022/10/06 07:01:31;;;;;;;;;;;;;;;13.39;95.97;100651.91;8261281;28;20377;-77
2022/10/06 07:05:33;;;;;;;;;;;;;;;13.74;93.14;100653.78;8248273;28;20587;-77
2022/10/06 07:09:34;;;;;;;;;;;;;;;14.14;90.97;100654.72;8245903;28;19925;-77
2022/10/06 07:13:35;;;;;;;;;;;;;;;14.57;88.24;100657.44;8241197;28;19925;-77
2022/10/06 07:26:18;;;;;;;;;;;;;;;15.82;77.69;100673.69;8241324;28;19977;-77
2022/10/06 07:30:24;;;;;;;;;;;;;;;16.18;74.94;100682.19;8268850;28;19930;-77
2022/10/06 07:34:29;;;;;;;;;;;;;;;16.29;73.74;100689.09;8278823;28;19922;-77
2022/10/06 07:38:31;;;;;;;;;;;;;;;16.26;72.87;100699.59;8248674;28;19925;-77
2022/10/06 07:42:47;;;;;;;;;;;;;;;16.27;72.89;100701.34;8268947;28;19929;-77
2022/10/06 07:46:48;;;;;;;;;;;;;;;16.14;71.67;100702.28;8266399;28;19925;-77
2022/10/06 07:50:50;;;;;;;;;;;;;;;16.19;72.03;100718.00;8268480;28;19921;-77
2022/10/06 07:54:52;;;;;;;;;;;;;;;16.10;71.93;100713.69;8268612;28;19926;-77
2022/10/06 07:58:55;;;;;;;;;;;;;;;16.14;72.70;100718.00;8269261;28;20354;-77
2022/10/06 08:02:56;;;;;;;;;;;;;;;16.20;71.77;100723.25;8240645;28;19937;-78
2022/10/06 08:06:58;;;;;;;;;;;;;;;16.12;70.21;100727.63;8250590;28;19926;-76
2022/10/06 08:10:59;;;;;;;;;;;;;;;16.08;70.32;100725.06;8256682;28;19936;-76
2022/10/06 08:15:05;;;;;;;;;;;;;;;16.56;69.57;100729.13;8246306;28;19957;-77
2022/10/06 08:19:08;;;;;;;;;;;;;;;17.15;68.04;100727.75;8264251;28;20012;-77
2022/10/06 08:23:10;;;;;;;;;;;;;;;17.33;66.48;100732.81;8271051;28;19929;-76
2022/10/06 08:27:14;;;;;;;;;;;;;;;17.34;65.10;100741.56;8263155;28;19929;-76
2022/10/06 08:31:17;;;;;;;;;;;;;;;17.24;64.57;100739.94;8264898;28;19925;-76
2022/10/06 08:35:20;;;;;;;;;;;;;;;17.07;62.74;100753.22;8233236;28;20327;-76
2022/10/06 08:39:21;;;;;;;;;;;;;;;16.90;60.34;100750.75;8241736;28;19925;-76
2022/10/06 08:43:24;;;;;;;;;;;;;;;16.88;62.71;100753.38;8236739;28;19930;-76
2022/10/06 08:47:27;;;;;;;;;;;;;;;17.01;61.17;100755.88;8233298;28;19926;-76
2022/10/06 08:51:43;;;;;;;;;;;;;;;17.08;59.83;100766.34;8230466;28;20446;-76
2022/10/06 08:55:46;;;;;;;;;;;;;;;17.04;60.96;100767.22;8252835;28;19944;-77
2022/10/06 08:59:51;;;;;;;;;;;;;;;17.13;61.50;100782.91;8231078;28;19922;-77
2022/10/06 09:03:56;;;;;;;;;;;;;;;17.39;62.27;100773.91;8229668;28;19937;-77
2022/10/06 09:08:20;;;;;;;;;;;;;;;17.72;59.92;100765.69;8228011;28;20397;-77
2022/10/06 09:12:43;;;;;;;;;;;;;;;17.99;58.11;100782.03;8223102;28;19930;-77
2022/10/06 09:16:49;;;;;;;;;;;;;;;18.10;57.13;100785.38;8219252;28;19930;-77
2022/10/06 09:21:10;;;;;;;;;;;;;;;18.06;55.89;100786.31;8232767;28;19925;-77
2022/10/06 09:25:25;;;;;;;;;;;;;;;18.06;57.39;100783.69;8226021;28;20662;-76
2022/10/06 09:29:30;;;;;;;;;;;;;;;17.95;56.47;100794.31;8238075;28;19981;-76
2022/10/06 09:33:36;;;;;;;;;;;;;;;17.96;56.55;100792.59;8236237;28;19933;-76
2022/10/06 09:37:56;;;;;;;;;;;;;;;17.97;57.09;100784.69;8266565;28;19930;-76
2022/10/06 09:41:59;;;;;;;;;;;;;;;17.91;56.74;100795.25;8262374;28;19937;-77
2022/10/06 09:46:19;;;;;;;;;;;;;;;17.94;56.71;100800.47;8265840;28;20350;-77
2022/10/06 09:50:22;;;;;;;;;;;;;;;17.92;54.10;100802.25;8244937;28;19960;-77
2022/10/06 09:54:24;;;;;;;;;;;;;;;17.85;55.39;100808.47;8242962;28;19983;-77
2022/10/06 09:58:33;;;;;;;;;;;;;;;17.87;55.89;100806.69;8242688;28;19976;-77
2022/10/06 10:02:35;;;;;;;;;;;;;;;17.80;54.49;100799.78;8270375;28;20315;-77
2022/10/06 10:06:39;;;;;;;;;;;;;;;17.87;55.57;100796.19;8278237;28;19976;-77
2022/10/06 10:10:40;;;;;;;;;;;;;;;18.07;55.43;100798.56;8267781;28;20417;-78
2022/10/06 10:14:41;;;;;;;;;;;;;;;17.99;53.13;100805.69;8283082;28;19926;-77
2022/10/06 10:18:46;;;;;;;;;;;;;;;18.20;53.71;100788.75;8248639;28;19992;-78
2022/10/06 10:22:48;;;;;;;;;;;;;;;18.36;52.75;100795.56;8258203;28;19922;-77
2022/10/06 10:27:13;;;;;;;;;;;;;;;18.27;53.29;100779.91;8238035;28;20539;-77
2022/10/06 10:31:19;;;;;;;;;;;;;;;18.31;52.45;100785.13;8248593;28;20011;-77
2022/10/06 10:35:26;;;;;;;;;;;;;;;18.35;49.48;100778.03;8264318;28;20760;-77
2022/10/06 10:39:37;;;;;;;;;;;;;;;18.39;50.12;100787.63;8249171;28;20315;-78
2022/10/06 10:43:38;;;;;;;;;;;;;;;18.41;50.42;100780.56;8257273;28;19995;-78
2022/10/06 10:47:44;;;;;;;;;;;;;;;18.49;50.45;100794.50;8255964;28;19929;-78
2022/10/06 10:51:51;;;;;;;;;;;;;;;18.52;51.55;100786.56;8253553;28;19930;-78
2022/10/06 10:55:53;;;;;;;;;;;;;;;18.58;51.78;100791.72;8251918;28;19929;-77
2022/10/06 10:59:59;;;;;;;;;;;;;;;18.45;49.70;100798.03;8250537;28;20310;-77
2022/10/06 11:04:02;;;;;;;;;;;;;;;18.29;52.02;100794.75;8247875;28;19972;-77
2022/10/06 11:08:12;;;;;;;;;;;;;;;18.33;50.91;100795.63;8255854;28;19932;-77
2022/10/06 11:12:13;;;;;;;;;;;;;;;18.21;48.74;100788.75;8255645;28;20461;-77
2022/10/06 11:16:23;;;;;;;;;;;;;;;18.30;48.36;100788.59;8248901;28;19929;-77
2022/10/06 11:20:36;;;;;;;;;;;;;;;18.43;48.25;100792.81;8254117;28;19937;-78
2022/10/06 11:24:47;;;;;;;;;;;;;;;18.50;49.94;100788.34;8246038;28;19930;-78
2022/10/06 11:28:55;;;;;;;;;;;;;;;18.45;47.72;100794.53;8251156;28;19951;-77
2022/10/06 11:33:05;;;;;;;;;;;;;;;18.46;48.00;100788.41;8251325;28;19922;-78
2022/10/06 11:37:36;;;;;;;;;;;;;;;18.49;48.41;100785.72;8249900;28;19956;-77
2022/10/06 11:41:40;;;;;;;;;;;;;;;18.42;47.27;100785.81;8214988;28;19954;-77
2022/10/06 11:45:44;;;;;;;;;;;;;;;18.40;46.13;100774.44;8266943;28;19968;-78
2022/10/06 11:49:48;;;;;;;;;;;;;;;18.39;47.18;100769.22;8262136;28;19944;-77
2022/10/06 11:53:50;;;;;;;;;;;;;;;18.46;48.06;100772.63;8255287;28;19929;-77
2022/10/06 11:58:00;;;;;;;;;;;;;;;18.46;46.05;100769.97;8259499;28;19987;-77
2022/10/06 12:02:36;;;;;;;;;;;;;;;18.51;46.19;100758.53;8249076;28;19933;-77
2022/10/06 12:06:41;;;;;;;;;;;;;;;18.53;45.79;100759.38;8268117;28;19930;-77
2022/10/06 12:10:47;;;;;;;;;;;;;;;18.64;46.15;100756.59;8256268;28;19930;-77
2022/10/06 12:14:54;;;;;;;;;;;;;;;18.68;45.14;100746.00;8256758;28;19930;-78
2022/10/06 12:19:19;;;;;;;;;;;;;;;18.70;46.76;100743.34;8258212;28;19925;-77
2022/10/06 12:23:39;;;;;;;;;;;;;;;18.71;46.67;100745.09;8269350;28;19926;-77
2022/10/06 12:27:51;;;;;;;;;;;;;;;18.67;45.67;100736.38;8242713;28;19925;-77
2022/10/06 12:32:11;;;;;;;;;;;;;;;18.56;45.66;100740.91;8250200;28;19925;-78
2022/10/06 12:36:18;;;;;;;;;;;;;;;18.68;46.11;100730.22;8273868;28;19925;-78
2022/10/06 12:40:41;;;;;;;;;;;;;;;18.76;47.25;100729.22;8255091;28;19929;-77
2022/10/06 12:44:50;;;;;;;;;;;;;;;18.75;47.38;100732.75;8258110;28;19992;-77
2022/10/06 12:49:02;;;;;;;;;;;;;;;18.72;45.40;100720.50;8249547;28;19988;-77
2022/10/06 12:53:10;;;;;;;;;;;;;;;18.66;44.27;100710.06;8251504;28;19948;-77
2022/10/06 12:57:17;;;;;;;;;;;;;;;18.78;45.33;100719.53;8245416;28;19926;-78
2022/10/06 13:01:20;;;;;;;;;;;;;;;18.68;43.42;100714.44;8232799;28;19934;-77
2022/10/06 13:05:22;;;;;;;;;;;;;;;18.72;45.60;100712.63;8257902;28;19926;-77
2022/10/06 13:09:23;;;;;;;;;;;;;;;18.76;45.68;100711.66;8257152;28;19929;-76
2022/10/06 13:13:25;;;;;;;;;;;;;;;18.78;46.26;100709.00;8266573;28;19933;-77
2022/10/06 13:17:26;;;;;;;;;;;;;;;18.75;44.67;100701.16;8245472;28;19925;-76
2022/10/06 13:21:28;;;;;;;;;;;;;;;18.79;45.35;100701.09;8263608;28;20389;-77
2022/10/06 13:25:39;;;;;;;;;;;;;;;18.84;45.88;100703.63;8248149;28;19925;-77
2022/10/06 13:29:40;;;;;;;;;;;;;;;18.77;44.21;100696.75;8260252;28;19925;-76
2022/10/06 13:33:43;;;;;;;;;;;;;;;18.78;45.88;100687.97;8253407;28;20032;-77
2022/10/06 13:37:44;;;;;;;;;;;;;;;18.85;44.87;100689.56;8270891;28;20031;-77
2022/10/06 13:41:51;;;;;;;;;;;;;;;18.86;45.70;100691.34;8286995;28;19930;-77
2022/10/06 13:45:52;;;;;;;;;;;;;;;18.86;45.07;100691.34;8288042;28;19925;-76
2022/10/06 13:50:15;;;;;;;;;;;;;;;18.87;44.66;100682.53;8253359;28;19930;-76
2022/10/06 13:54:44;;;;;;;;;;;;;;;18.94;46.02;100689.44;8256631;28;19932;-76
2022/10/06 13:58:46;;;;;;;;;;;;;;;18.91;46.45;100682.47;8275098;28;20315;-77
2022/10/06 14:02:50;;;;;;;;;;;;;;;18.93;45.80;100682.44;8257769;28;19936;-77
2022/10/06 14:06:53;;;;;;;;;;;;;;;18.88;45.17;100676.38;8261938;28;19936;-76
2022/10/06 14:10:55;;;;;;;;;;;;;;;18.85;46.11;100671.16;8256225;28;20024;-76
2022/10/06 14:14:57;;;;;;;;;;;;;;;18.82;45.20;100677.34;8251719;28;19925;-77
2022/10/06 14:19:00;;;;;;;;;;;;;;;18.81;45.10;100670.34;8263733;28;19929;-76
2022/10/06 14:23:22;;;;;;;;;;;;;;;18.70;45.83;100672.31;8260016;28;19939;-76
2022/10/06 14:27:24;;;;;;;;;;;;;;;18.64;46.98;100672.41;8278808;28;19925;-77
2022/10/06 14:31:26;;;;;;;;;;;;;;;18.62;46.56;100671.53;8262757;28;19956;-77
2022/10/06 14:35:28;;;;;;;;;;;;;;;18.56;45.94;100667.25;8264654;28;19979;-78
2022/10/06 14:39:29;;;;;;;;;;;;;;;18.51;47.46;100661.19;8270745;28;20354;-77
2022/10/06 14:43:31;;;;;;;;;;;;;;;18.53;45.77;100664.66;8283200;28;19956;-78
2022/10/06 14:47:33;;;;;;;;;;;;;;;18.56;47.01;100656.72;8261317;28;19925;-77
2022/10/06 14:51:35;;;;;;;;;;;;;;;18.54;47.62;100662.91;8294919;28;19925;-78
2022/10/06 14:55:37;;;;;;;;;;;;;;;18.55;47.69;100649.72;8293042;28;19964;-77
2022/10/06 14:59:38;;;;;;;;;;;;;;;18.54;47.87;100644.50;8274816;28;20048;-77
2022/10/06 15:03:40;;;;;;;;;;;;;;;18.53;47.14;100648.88;8289903;28;20480;-77
2022/10/06 15:12:06;;;;;;;;;;;;;;;18.38;51.01;100643.88;8295608;28;19925;-77
2022/10/06 15:16:07;;;;;;;;;;;;;;;18.39;53.19;100635.09;8292438;28;19979;-77
2022/10/06 15:20:11;;;;;;;;;;;;;;;18.49;53.87;100634.06;8264953;28;19940;-78
2022/10/06 15:24:14;;;;;;;;;;;;;;;18.53;51.83;100627.84;8292782;28;19991;-77
2022/10/06 15:32:36;;;;;;;;;;;;;;;18.74;49.53;100624.00;8291598;28;19954;-78
2022/10/06 15:36:38;;;;;;;;;;;;;;;18.92;48.64;100618.38;8264859;28;20283;-77
2022/10/06 15:40:39;;;;;;;;;;;;;;;19.17;49.17;100612.63;8268398;28;19962;-77
2022/10/06 15:44:41;;;;;;;;;;;;;;;19.35;50.25;100611.41;8259338;28;19926;-77
2022/10/06 15:48:43;;;;;;;;;;;;;;;19.54;49.89;100615.41;8251127;28;19926;-77
2022/10/06 15:52:45;;;;;;;;;;;;;;;19.82;52.46;100610.41;8259136;28;19929;-77
2022/10/06 15:56:46;;;;;;;;;;;;;;;20.29;49.53;100611.03;8260930;28;19930;-77
2022/10/06 16:00:48;;;;;;;;;;;;;;;18.99;54.44;100605.97;8261739;28;19929;-77
2022/10/06 16:05:42;;;;;;;;;;;;;;;17.97;57.75;100612.97;8268932;28;20034;-77
2022/10/06 16:09:17;;;;;;;;;;;;;;;17.21;61.34;100618.31;8265211;28;19979;-77
2022/10/06 16:13:19;;;;;;;;;;;;;;;16.50;62.91;100619.03;8259049;28;19937;-77
2022/10/06 16:17:20;;;;;;;;;;;;;;;16.06;65.64;100622.00;8262705;28;19929;-77
2022/10/06 16:21:21;;;;;;;;;;;;;;;15.68;66.25;100624.00;8263364;28;19991;-76
2022/10/06 16:25:23;;;;;;;;;;;;;;;15.26;67.60;100621.50;8258572;28;20398;-77
2022/10/06 16:29:25;;;;;;;;;;;;;;;15.01;69.41;100615.50;8253632;28;19925;-77
2022/10/06 16:33:26;;;;;;;;;;;;;;;14.78;70.58;100611.22;8246109;28;19926;-77
2022/10/06 16:37:27;;;;;;;;;;;;;;;14.55;72.00;100610.38;8269389;28;19952;-77
2022/10/06 16:41:29;;;;;;;;;;;;;;;14.36;73.23;100614.72;8272842;28;19998;-77
2022/10/06 16:45:30;;;;;;;;;;;;;;;14.11;72.96;100618.16;8263112;28;19991;-76
2022/10/06 16:49:31;;;;;;;;;;;;;;;13.93;74.20;100620.75;8282741;28;19929;-76
2022/10/06 16:53:37;;;;;;;;;;;;;;;13.79;74.43;100620.72;8268165;28;20358;-76
2022/10/06 16:57:38;;;;;;;;;;;;;;;13.62;74.45;100620.69;8270387;28;19933;-76
2022/10/06 17:01:40;;;;;;;;;;;;;;;13.41;75.29;100618.00;8269834;28;19953;-76
2022/10/06 17:05:41;;;;;;;;;;;;;;;13.16;75.24;100628.31;8298786;28;19929;-76
2022/10/06 17:09:43;;;;;;;;;;;;;;;12.96;76.99;100623.00;8270360;28;19929;-76
2022/10/06 17:14:04;;;;;;;;;;;;;;;12.76;77.62;100623.72;8269336;28;20777;-77
2022/10/06 17:18:05;;;;;;;;;;;;;;;12.63;78.18;100638.41;8280725;28;19960;-76
2022/10/06 17:22:07;;;;;;;;;;;;;;;12.47;78.48;100646.97;8275874;28;19936;-76
2022/10/06 17:26:15;;;;;;;;;;;;;;;12.30;78.61;100645.09;8263516;28;19936;-76
2022/10/06 17:30:16;;;;;;;;;;;;;;;12.15;79.11;100644.06;8265337;28;19925;-77
2022/10/06 17:34:19;;;;;;;;;;;;;;;12.00;79.88;100653.47;8280939;28;19929;-77
2022/10/06 17:38:25;;;;;;;;;;;;;;;11.87;79.76;100656.84;8280632;28;19926;-76
2022/10/06 17:42:26;;;;;;;;;;;;;;;11.76;80.20;100661.00;8293892;28;19979;-76
2022/10/06 17:46:31;;;;;;;;;;;;;;;11.64;80.96;100658.25;8263118;28;19929;-76
2022/10/06 17:50:32;;;;;;;;;;;;;;;11.52;80.74;100658.13;8288051;28;19925;-76
2022/10/06 17:54:33;;;;;;;;;;;;;;;11.38;80.94;100657.94;8281637;28;20558;-75
2022/10/06 17:58:35;;;;;;;;;;;;;;;11.27;81.86;100665.59;8284609;28;20305;-75
2022/10/06 18:02:38;;;;;;;;;;;;;;;11.16;81.84;100659.41;8280833;28;19925;-74
2022/10/06 18:06:41;;;;;;;;;;;;;;;11.04;82.42;100660.09;8283964;28;19925;-74
2022/10/06 18:15:08;;;;;;;;;;;;;;;10.83;82.67;100659.78;8280435;28;19979;-74
2022/10/06 18:19:12;;;;;;;;;;;;;;;10.71;82.69;100665.66;8294469;28;19929;-74
2022/10/06 18:23:13;;;;;;;;;;;;;;;10.59;83.09;100655.97;8269676;28;19925;-75
2022/10/06 18:27:15;;;;;;;;;;;;;;;10.46;83.79;100667.00;8290188;28;19933;-75
2022/10/06 18:31:17;;;;;;;;;;;;;;;10.39;84.38;100666.84;8289462;28;19928;-74
2022/10/06 18:35:21;;;;;;;;;;;;;;;10.32;84.95;100671.09;8297433;28;19976;-74
2022/10/06 18:39:43;;;;;;;;;;;;;;;10.24;85.12;100676.16;8286461;28;19960;-74
2022/10/06 18:43:45;;;;;;;;;;;;;;;10.17;85.38;100663.88;8282679;28;19956;-74
2022/10/06 18:52:07;;;;;;;;;;;;;;;9.96;85.85;100660.88;8279170;28;20372;-74
2022/10/06 18:56:09;;;;;;;;;;;;;;;9.89;86.22;100656.44;8280388;28;19925;-74
2022/10/06 19:00:13;;;;;;;;;;;;;;;9.80;86.86;100657.13;8261276;28;19925;-74
2022/10/06 19:04:16;;;;;;;;;;;;;;;9.73;87.30;100659.59;8284268;28;19956;-74
2022/10/06 19:08:18;;;;;;;;;;;;;;;9.66;87.64;100656.84;8293398;28;19925;-74
2022/10/06 19:12:20;;;;;;;;;;;;;;;9.62;88.05;100664.56;8276538;28;19964;-74
2022/10/06 19:16:22;;;;;;;;;;;;;;;9.55;88.18;100668.75;8282449;28;19929;-74
2022/10/06 19:20:23;;;;;;;;;;;;;;;9.48;87.65;100658.22;8270728;28;20008;-74
2022/10/06 19:24:27;;;;;;;;;;;;;;;9.41;88.16;100661.53;8268826;28;19935;-74
2022/10/06 19:28:30;;;;;;;;;;;;;;;9.36;88.40;100667.50;8272052;28;19925;-74
2022/10/06 19:32:31;;;;;;;;;;;;;;;9.32;89.03;100672.56;8293319;28;20301;-74
2022/10/06 19:36:34;;;;;;;;;;;;;;;9.26;88.99;100665.53;8281520;28;19925;-74
2022/10/06 19:40:36;;;;;;;;;;;;;;;9.19;89.10;100670.56;8285551;28;20603;-74
2022/10/06 19:44:38;;;;;;;;;;;;;;;9.12;89.22;100668.69;8292238;28;20386;-74
2022/10/06 19:48:43;;;;;;;;;;;;;;;9.04;89.21;100669.41;8268765;28;19925;-74
2022/10/06 19:52:44;;;;;;;;;;;;;;;8.95;89.79;100671.75;8291205;28;19983;-74
2022/10/06 19:56:46;;;;;;;;;;;;;;;8.90;90.18;100677.69;8278589;28;19926;-74
2022/10/06 20:00:47;;;;;;;;;;;;;;;8.81;89.99;100673.19;8280594;28;20515;-74
2022/10/06 20:04:49;;;;;;;;;;;;;;;8.76;90.06;100677.34;8297179;28;19925;-74
2022/10/06 20:08:51;;;;;;;;;;;;;;;8.71;90.56;100679.84;8277747;28;19987;-74
2022/10/06 20:12:52;;;;;;;;;;;;;;;8.65;90.42;100681.44;8292352;28;19933;-74
2022/10/06 20:16:54;;;;;;;;;;;;;;;8.62;90.84;100676.19;8292851;28;19929;-74
2022/10/06 20:20:57;;;;;;;;;;;;;;;8.56;90.39;100674.31;8274993;28;20009;-73
2022/10/06 20:25:00;;;;;;;;;;;;;;;8.50;90.49;100673.28;8296787;28;19936;-73
2022/10/06 20:29:04;;;;;;;;;;;;;;;8.42;90.68;100679.13;8273428;28;19976;-73
2022/10/06 20:33:06;;;;;;;;;;;;;;;8.38;91.05;100674.72;8293061;28;19984;-73
2022/10/06 20:37:07;;;;;;;;;;;;;;;8.29;90.65;100666.72;8294730;28;20028;-73
2022/10/06 20:41:08;;;;;;;;;;;;;;;8.19;90.32;100660.41;8274996;28;19929;-73
2022/10/06 20:45:10;;;;;;;;;;;;;;;8.15;91.13;100660.31;8291396;28;19933;-73
2022/10/06 20:49:20;;;;;;;;;;;;;;;8.11;91.12;100661.94;8295591;28;20340;-73
2022/10/06 20:53:25;;;;;;;;;;;;;;;8.07;91.20;100651.44;8292851;28;19952;-73
2022/10/06 20:57:27;;;;;;;;;;;;;;;8.01;91.12;100652.19;8299475;28;19961;-74
2022/10/06 21:01:34;;;;;;;;;;;;;;;7.95;91.50;100652.03;8301181;28;19926;-73
2022/10/06 21:05:36;;;;;;;;;;;;;;;7.86;91.44;100651.75;8285393;28;19925;-74
2022/10/06 21:09:38;;;;;;;;;;;;;;;7.81;91.66;100654.25;8270562;28;19936;-74
2022/10/06 21:13:39;;;;;;;;;;;;;;;7.80;91.64;100649.91;8295422;28;19937;-74
2022/10/06 21:17:44;;;;;;;;;;;;;;;7.76;91.93;100649.78;8274303;28;19925;-74
2022/10/06 21:21:52;;;;;;;;;;;;;;;7.71;92.00;100649.63;8270944;28;19936;-74